Time;durP1;ratioP1;P1;durP2;ratioP2;P2;SDS_P1;SDS_P2;PMS_P1;PMS_P2;Temp;Humidity;BMP_temperature;BMP_pressure;BME280_temperature;BME280_humidity;BME280_pressure;Samples;Min_cycle;Max_cycle;Signal;HPM_P1;HPM_P2
2022/07/15 00:00:59;;;;;;;;;;;16.80;99.90;;;;;;4594123;19;20361;-37
2022/07/15 00:02:30;;;;;;;;;;;16.80;99.90;;;;;;4594338;19;20237;-37
2022/07/15 00:04:01;;;;;;;;;;;16.80;99.90;;;;;;4593979;19;19962;-35
2022/07/15 00:05:32;;;;;;;;;;;16.80;99.90;;;;;;4594295;19;19929;-34
2022/07/15 00:07:03;;;;;;;;;;;16.80;99.90;;;;;;4594787;19;19970;-34
2022/07/15 00:08:35;;;;;;;;;;;16.80;99.90;;;;;;4593856;19;19911;-34
2022/07/15 00:10:15;;;;;;;;;;;16.70;99.90;;;;;;4594008;19;19926;-39
2022/07/15 00:11:46;;;;;;;;;;;16.70;99.90;;;;;;4592450;19;20252;-36
2022/07/15 00:13:17;;;;;;;;;;;16.70;99.90;;;;;;4593695;19;20113;-34
2022/07/15 00:14:48;;;;;;;;;;;16.70;99.90;;;;;;4594114;19;19922;-37
2022/07/15 00:16:22;;;;;;;;;;;16.70;99.90;;;;;;4593578;19;19914;-39
2022/07/15 00:17:53;;;;;;;;;;;16.70;99.90;;;;;;4594246;19;19918;-39
2022/07/15 00:19:23;;;;;;;;;;;16.70;99.90;;;;;;4594310;19;19915;-35
2022/07/15 00:20:56;;;;;;;;;;;16.70;99.90;;;;;;4593995;19;19911;-36
2022/07/15 00:22:27;;;;;;;;;;;16.70;99.90;;;;;;4592680;19;20285;-32
2022/07/15 00:23:59;;;;;;;;;;;16.70;99.90;;;;;;4593612;19;19915;-35
2022/07/15 00:25:30;;;;;;;;;;;16.60;99.90;;;;;;4593593;19;19918;-37
2022/07/15 00:27:02;;;;;;;;;;;16.60;99.90;;;;;;4592617;19;19925;-35
2022/07/15 00:28:33;;;;;;;;;;;16.60;99.90;;;;;;4593111;19;19919;-37
2022/07/15 00:30:04;;;;;;;;;;;16.60;99.90;;;;;;4593825;19;20336;-37
2022/07/15 00:31:35;;;;;;;;;;;16.60;99.90;;;;;;4593617;19;19970;-35
2022/07/15 00:33:07;;;;;;;;;;;16.60;99.90;;;;;;4592934;19;19945;-37
2022/07/15 00:34:38;;;;;;;;;;;16.60;99.90;;;;;;4593699;19;19941;-39
2022/07/15 00:36:08;;;;;;;;;;;16.60;99.90;;;;;;4593585;19;19915;-34
2022/07/15 00:37:39;;;;;;;;;;;16.60;99.90;;;;;;4594071;19;20317;-34
2022/07/15 00:39:11;;;;;;;;;;;16.70;99.90;;;;;;4593271;19;20340;-34
2022/07/15 00:40:42;;;;;;;;;;;16.60;99.90;;;;;;4593485;19;19967;-38
2022/07/15 00:42:43;;;;;;;;;;;16.60;99.90;;;;;;4592560;19;19911;-35
2022/07/15 00:44:07;;;;;;;;;;;16.60;99.90;;;;;;4593202;19;19997;-34
2022/07/15 00:45:38;;;;;;;;;;;16.60;99.90;;;;;;4591893;19;19907;-35
2022/07/15 00:47:09;;;;;;;;;;;16.60;99.90;;;;;;4592726;19;20277;-34
2022/07/15 00:48:40;;;;;;;;;;;16.60;99.90;;;;;;4593316;19;20261;-38
2022/07/15 00:50:11;;;;;;;;;;;16.60;99.90;;;;;;4593797;19;19914;-35
2022/07/15 00:51:43;;;;;;;;;;;16.60;99.90;;;;;;4593104;19;19961;-35
2022/07/15 00:53:18;;;;;;;;;;;16.50;99.90;;;;;;4592582;19;19970;-35
2022/07/15 00:54:49;;;;;;;;;;;16.60;99.90;;;;;;4593224;19;19918;-40
2022/07/15 00:56:21;;;;;;;;;;;16.60;99.90;;;;;;4593691;19;19915;-37
2022/07/15 00:57:55;;;;;;;;;;;16.60;99.90;;;;;;4591615;19;19922;-33
2022/07/15 00:59:28;;;;;;;;;;;16.60;99.90;;;;;;4591654;19;20268;-33
2022/07/15 01:00:59;;;;;;;;;;;16.60;99.90;;;;;;4592680;19;19915;-37
2022/07/15 01:02:31;;;;;;;;;;;16.50;99.90;;;;;;4592232;19;19978;-34
2022/07/15 01:04:03;;;;;;;;;;;16.60;99.90;;;;;;4592359;19;20253;-36
2022/07/15 01:05:34;;;;;;;;;;;16.60;99.90;;;;;;4593076;19;19930;-34
2022/07/15 01:07:05;;;;;;;;;;;16.60;99.90;;;;;;4593381;19;19929;-33
2022/07/15 01:08:36;;;;;;;;;;;16.60;99.90;;;;;;4592589;19;19935;-36
2022/07/15 01:10:08;;;;;;;;;;;16.60;99.90;;;;;;4592706;19;19915;-36
2022/07/15 01:11:39;;;;;;;;;;;16.60;99.90;;;;;;4591313;19;19923;-34
2022/07/15 01:13:10;;;;;;;;;;;16.60;99.90;;;;;;4591857;19;19986;-37
2022/07/15 01:14:41;;;;;;;;;;;16.60;99.90;;;;;;4591390;19;19915;-35
2022/07/15 01:16:12;;;;;;;;;;;16.60;99.90;;;;;;4592158;19;20245;-34
2022/07/15 01:17:44;;;;;;;;;;;16.60;99.90;;;;;;4591367;19;19919;-37
2022/07/15 01:19:15;;;;;;;;;;;16.60;99.90;;;;;;4592308;19;19978;-37
2022/07/15 01:20:46;;;;;;;;;;;16.60;99.90;;;;;;4590024;19;19911;-35
2022/07/15 01:22:17;;;;;;;;;;;16.60;99.90;;;;;;4592066;19;19926;-35
2022/07/15 01:23:48;;;;;;;;;;;16.60;99.90;;;;;;4593211;19;19929;-34
2022/07/15 01:25:19;;;;;;;;;;;16.60;99.90;;;;;;4592603;19;19938;-33
2022/07/15 01:26:50;;;;;;;;;;;16.60;99.90;;;;;;4592578;19;19919;-34
2022/07/15 01:28:21;;;;;;;;;;;16.60;99.90;;;;;;4592869;19;19922;-34
2022/07/15 01:29:52;;;;;;;;;;;16.60;99.90;;;;;;4591385;19;19919;-40
2022/07/15 01:31:23;;;;;;;;;;;16.60;99.90;;;;;;4591757;19;19927;-36
2022/07/15 01:32:54;;;;;;;;;;;16.60;99.90;;;;;;4592080;19;19911;-39
2022/07/15 01:34:26;;;;;;;;;;;16.60;99.90;;;;;;4592373;19;19919;-39
2022/07/15 01:35:58;;;;;;;;;;;16.60;99.90;;;;;;4592486;19;19955;-38
2022/07/15 01:37:29;;;;;;;;;;;16.60;99.90;;;;;;4592025;19;19982;-36
2022/07/15 01:39:01;;;;;;;;;;;16.60;99.90;;;;;;4592308;19;19926;-37
2022/07/15 01:40:32;;;;;;;;;;;16.60;99.90;;;;;;4592919;19;19918;-33
2022/07/15 01:42:03;;;;;;;;;;;16.60;99.90;;;;;;4592764;19;19919;-33
2022/07/15 01:43:34;;;;;;;;;;;16.60;99.90;;;;;;4591960;19;19926;-36
2022/07/15 01:45:05;;;;;;;;;;;16.60;99.90;;;;;;4592194;19;19941;-33
2022/07/15 01:46:36;;;;;;;;;;;16.60;99.90;;;;;;4592380;19;20296;-36
2022/07/15 01:48:07;;;;;;;;;;;16.60;99.90;;;;;;4591796;19;20040;-38
2022/07/15 01:49:38;;;;;;;;;;;16.60;99.90;;;;;;4592268;19;19907;-33
2022/07/15 01:51:09;;;;;;;;;;;16.60;99.90;;;;;;4592090;19;19919;-38
2022/07/15 01:52:40;;;;;;;;;;;16.60;99.90;;;;;;4591735;19;19915;-36
2022/07/15 01:54:11;;;;;;;;;;;16.60;99.90;;;;;;4590586;19;19930;-36
2022/07/15 01:55:42;;;;;;;;;;;16.60;99.90;;;;;;4590935;19;20385;-38
2022/07/15 01:57:13;;;;;;;;;;;16.60;99.90;;;;;;4591479;19;19918;-34
2022/07/15 01:58:45;;;;;;;;;;;16.60;99.90;;;;;;4592027;19;19919;-35
2022/07/15 02:00:17;;;;;;;;;;;16.70;99.90;;;;;;4591654;19;19914;-33
2022/07/15 02:01:48;;;;;;;;;;;16.60;99.90;;;;;;4592293;19;19914;-36
2022/07/15 02:03:19;;;;;;;;;;;16.70;99.90;;;;;;4592150;19;19915;-35
2022/07/15 02:04:50;;;;;;;;;;;16.60;99.90;;;;;;4591471;19;19927;-36
2022/07/15 02:06:22;;;;;;;;;;;16.60;99.90;;;;;;4591617;19;19923;-38
2022/07/15 02:07:53;;;;;;;;;;;16.60;99.90;;;;;;4589196;19;19928;-37
2022/07/15 02:09:24;;;;;;;;;;;16.60;99.90;;;;;;4589854;19;19915;-32
2022/07/15 02:10:55;;;;;;;;;;;16.60;99.90;;;;;;4586816;19;19934;-37
2022/07/15 02:12:26;;;;;;;;;;;16.70;99.90;;;;;;4589546;19;19911;-33
2022/07/15 02:13:59;;;;;;;;;;;16.70;99.90;;;;;;4589078;19;20253;-38
2022/07/15 02:15:30;;;;;;;;;;;16.70;99.90;;;;;;4589612;19;19922;-38
2022/07/15 02:17:01;;;;;;;;;;;16.70;99.90;;;;;;4589486;19;19929;-34
2022/07/15 02:18:33;;;;;;;;;;;16.70;99.90;;;;;;4589552;19;19914;-34
2022/07/15 02:20:04;;;;;;;;;;;16.70;99.90;;;;;;4589407;19;19915;-35
2022/07/15 02:21:36;;;;;;;;;;;16.70;99.90;;;;;;4589323;19;20284;-38
2022/07/15 02:23:07;;;;;;;;;;;16.70;99.90;;;;;;4589140;19;19930;-40
2022/07/15 02:24:38;;;;;;;;;;;16.70;99.90;;;;;;4589545;19;19984;-36
2022/07/15 02:26:09;;;;;;;;;;;16.70;99.90;;;;;;4589618;19;20268;-36
2022/07/15 02:27:40;;;;;;;;;;;16.70;99.90;;;;;;4589148;19;19913;-37
2022/07/15 02:29:11;;;;;;;;;;;16.80;99.90;;;;;;4589103;19;19923;-35
2022/07/15 02:30:42;;;;;;;;;;;16.80;99.90;;;;;;4589145;19;19919;-34
2022/07/15 02:32:13;;;;;;;;;;;16.70;99.90;;;;;;4589170;19;19914;-35
2022/07/15 02:33:44;;;;;;;;;;;16.60;99.90;;;;;;4588113;19;20022;-35
2022/07/15 02:35:16;;;;;;;;;;;16.60;99.90;;;;;;4588625;19;19947;-36
2022/07/15 02:36:47;;;;;;;;;;;16.60;99.90;;;;;;4588953;19;19915;-34
2022/07/15 02:38:18;;;;;;;;;;;16.50;99.90;;;;;;4589410;19;20252;-34
2022/07/15 02:39:49;;;;;;;;;;;16.50;99.90;;;;;;4590579;19;19952;-36
2022/07/15 02:41:20;;;;;;;;;;;16.40;99.90;;;;;;4591396;19;19927;-35
2022/07/15 02:42:52;;;;;;;;;;;16.40;99.90;;;;;;4591273;19;20335;-35
2022/07/15 02:44:24;;;;;;;;;;;16.40;99.90;;;;;;4590493;19;19919;-36
2022/07/15 02:45:55;;;;;;;;;;;16.40;99.90;;;;;;4591167;19;19925;-37
2022/07/15 02:47:26;;;;;;;;;;;16.40;99.90;;;;;;4591583;19;19915;-33
2022/07/15 02:48:57;;;;;;;;;;;16.40;99.90;;;;;;4591530;19;19910;-32
2022/07/15 02:50:28;;;;;;;;;;;16.40;99.90;;;;;;4590851;19;19915;-39
2022/07/15 02:51:59;;;;;;;;;;;16.40;99.90;;;;;;4590997;19;19911;-33
2022/07/15 02:53:30;;;;;;;;;;;16.40;99.90;;;;;;4587664;19;19914;-32
2022/07/15 02:55:02;;;;;;;;;;;16.40;99.90;;;;;;4590215;19;19922;-35
2022/07/15 02:56:33;;;;;;;;;;;16.40;99.90;;;;;;4590647;19;19943;-34
2022/07/15 02:58:04;;;;;;;;;;;16.40;99.90;;;;;;4591139;19;19923;-36
2022/07/15 02:59:35;;;;;;;;;;;16.40;99.90;;;;;;4591363;19;19918;-33
2022/07/15 03:01:06;;;;;;;;;;;16.40;99.90;;;;;;4590901;19;19922;-35
2022/07/15 03:02:38;;;;;;;;;;;16.40;99.90;;;;;;4590901;19;19921;-38
2022/07/15 03:04:09;;;;;;;;;;;16.30;99.90;;;;;;4591176;19;19974;-34
2022/07/15 03:05:40;;;;;;;;;;;16.40;99.90;;;;;;4591500;19;19915;-33
2022/07/15 03:07:12;;;;;;;;;;;16.40;99.90;;;;;;4590486;19;19910;-36
2022/07/15 03:08:43;;;;;;;;;;;16.40;99.90;;;;;;4590584;19;19918;-34
2022/07/15 03:10:14;;;;;;;;;;;16.30;99.90;;;;;;4591099;19;20343;-36
2022/07/15 03:11:45;;;;;;;;;;;16.40;99.90;;;;;;4589716;19;19931;-35
2022/07/15 03:13:17;;;;;;;;;;;16.40;99.90;;;;;;4590156;19;19910;-36
2022/07/15 03:14:48;;;;;;;;;;;16.30;99.90;;;;;;4590523;19;19918;-37
2022/07/15 03:16:18;;;;;;;;;;;16.40;99.90;;;;;;4591370;19;19966;-32
2022/07/15 03:17:50;;;;;;;;;;;16.40;99.90;;;;;;4590371;19;19918;-35
2022/07/15 03:19:21;;;;;;;;;;;16.30;99.90;;;;;;4590128;19;19931;-34
2022/07/15 03:20:52;;;;;;;;;;;16.30;99.90;;;;;;4590191;19;19915;-41
2022/07/15 03:22:23;;;;;;;;;;;16.30;99.90;;;;;;4594658;19;19918;-33
2022/07/15 03:23:54;;;;;;;;;;;16.40;99.90;;;;;;4595107;19;20052;-37
2022/07/15 03:25:25;;;;;;;;;;;16.40;99.90;;;;;;4595113;19;19915;-37
2022/07/15 03:26:56;;;;;;;;;;;16.40;99.90;;;;;;4595199;19;19948;-37
2022/07/15 03:28:27;;;;;;;;;;;16.40;99.90;;;;;;4593672;19;19971;-40
2022/07/15 03:29:59;;;;;;;;;;;16.40;99.90;;;;;;4594333;19;19915;-35
2022/07/15 03:31:30;;;;;;;;;;;16.40;99.90;;;;;;4594867;19;19911;-36
2022/07/15 03:33:01;;;;;;;;;;;16.40;99.90;;;;;;4594972;19;19932;-32
2022/07/15 03:34:32;;;;;;;;;;;16.40;99.90;;;;;;4594744;19;19925;-38
2022/07/15 03:36:05;;;;;;;;;;;16.40;99.90;;;;;;4594744;19;19928;-34
2022/07/15 03:37:35;;;;;;;;;;;16.30;99.90;;;;;;4595178;19;19914;-38
2022/07/15 03:39:07;;;;;;;;;;;16.40;99.90;;;;;;4594920;19;19919;-37
2022/07/15 03:40:38;;;;;;;;;;;16.40;99.90;;;;;;4594520;19;19915;-35
2022/07/15 03:42:09;;;;;;;;;;;16.30;99.90;;;;;;4594829;19;19927;-41
2022/07/15 03:43:41;;;;;;;;;;;16.30;99.90;;;;;;4593400;19;19929;-34
2022/07/15 03:45:12;;;;;;;;;;;16.40;99.90;;;;;;4594282;19;19923;-41
2022/07/15 03:46:45;;;;;;;;;;;16.40;99.90;;;;;;4594237;19;19915;-36
2022/07/15 03:48:16;;;;;;;;;;;16.40;99.90;;;;;;4594752;19;19919;-33
2022/07/15 03:49:47;;;;;;;;;;;16.40;99.90;;;;;;4594580;19;19929;-33
2022/07/15 03:51:18;;;;;;;;;;;16.40;99.90;;;;;;4595917;19;19914;-29
2022/07/15 03:52:49;;;;;;;;;;;16.40;99.90;;;;;;4594226;19;20415;-32
2022/07/15 03:54:21;;;;;;;;;;;16.40;99.90;;;;;;4594400;19;19915;-36
2022/07/15 03:55:51;;;;;;;;;;;16.40;99.90;;;;;;4594776;19;19926;-33
2022/07/15 03:57:24;;;;;;;;;;;16.40;99.90;;;;;;4596006;19;19922;-31
2022/07/15 03:58:55;;;;;;;;;;;16.50;99.90;;;;;;4596055;19;19917;-33
2022/07/15 04:00:27;;;;;;;;;;;16.50;99.90;;;;;;4594693;19;19974;-36
2022/07/15 04:01:57;;;;;;;;;;;16.50;99.90;;;;;;4593198;19;19941;-41
2022/07/15 04:03:28;;;;;;;;;;;16.50;99.90;;;;;;4593191;19;20316;-35
2022/07/15 04:04:59;;;;;;;;;;;16.50;99.90;;;;;;4594497;19;19935;-36
2022/07/15 04:06:31;;;;;;;;;;;16.50;99.90;;;;;;4594811;19;19923;-35
2022/07/15 04:08:02;;;;;;;;;;;16.50;99.90;;;;;;4594086;19;19918;-38
2022/07/15 04:09:33;;;;;;;;;;;16.50;99.90;;;;;;4593894;19;19918;-36
2022/07/15 04:11:05;;;;;;;;;;;16.50;99.90;;;;;;4593007;19;19915;-33
2022/07/15 04:12:36;;;;;;;;;;;16.50;99.90;;;;;;4594726;19;20363;-32
2022/07/15 04:14:08;;;;;;;;;;;16.50;99.90;;;;;;4593136;19;19919;-33
2022/07/15 04:15:39;;;;;;;;;;;16.50;99.90;;;;;;4592896;19;19915;-35
2022/07/15 04:17:10;;;;;;;;;;;16.50;99.90;;;;;;4593427;19;19930;-33
2022/07/15 04:18:41;;;;;;;;;;;16.50;99.90;;;;;;4593232;19;19922;-36
2022/07/15 04:20:12;;;;;;;;;;;16.50;99.90;;;;;;4592053;19;20407;-32
2022/07/15 04:21:43;;;;;;;;;;;16.50;99.90;;;;;;4594468;19;19914;-32
2022/07/15 04:23:14;;;;;;;;;;;16.50;99.90;;;;;;4594092;19;19922;-39
2022/07/15 04:24:45;;;;;;;;;;;16.50;99.90;;;;;;4591143;19;19919;-39
2022/07/15 04:26:16;;;;;;;;;;;16.50;99.90;;;;;;4591305;19;19927;-33
2022/07/15 04:27:50;;;;;;;;;;;16.50;99.90;;;;;;4594007;19;19938;-37
2022/07/15 04:29:21;;;;;;;;;;;16.50;99.90;;;;;;4594071;19;19919;-34
2022/07/15 04:30:52;;;;;;;;;;;16.50;99.90;;;;;;4593624;19;19918;-36
2022/07/15 04:32:23;;;;;;;;;;;16.50;99.90;;;;;;4593004;19;19926;-39
2022/07/15 04:33:54;;;;;;;;;;;16.50;99.90;;;;;;4589701;19;19930;-36
2022/07/15 04:35:25;;;;;;;;;;;16.50;99.90;;;;;;4592779;19;19906;-42
2022/07/15 04:36:56;;;;;;;;;;;16.50;99.90;;;;;;4593911;19;19930;-38
2022/07/15 04:38:27;;;;;;;;;;;16.50;99.90;;;;;;4593555;19;20385;-32
2022/07/15 04:39:58;;;;;;;;;;;16.50;99.90;;;;;;4593158;19;19915;-35
2022/07/15 04:41:29;;;;;;;;;;;16.50;99.90;;;;;;4594526;19;19918;-36
2022/07/15 04:43:01;;;;;;;;;;;16.50;99.90;;;;;;4593495;19;20246;-37
2022/07/15 04:44:31;;;;;;;;;;;16.50;99.90;;;;;;4592527;19;19985;-39
2022/07/15 04:46:02;;;;;;;;;;;16.50;99.90;;;;;;4592253;19;19918;-34
2022/07/15 04:47:33;;;;;;;;;;;16.50;99.90;;;;;;4590745;19;19919;-32
2022/07/15 04:50:55;;;;;;;;;;;16.60;99.90;;;;;;4591498;19;19923;-36
2022/07/15 04:52:27;;;;;;;;;;;16.50;99.90;;;;;;4591018;19;19932;-39
2022/07/15 04:53:58;;;;;;;;;;;16.60;99.90;;;;;;4590695;19;19926;-33
2022/07/15 04:55:29;;;;;;;;;;;16.50;99.90;;;;;;4593572;19;19927;-37
2022/07/15 04:57:00;;;;;;;;;;;16.60;99.90;;;;;;4593188;19;19986;-37
2022/07/15 04:58:31;;;;;;;;;;;16.60;99.90;;;;;;4593009;19;19915;-41
2022/07/15 05:00:02;;;;;;;;;;;16.60;99.90;;;;;;4592256;19;19926;-33
2022/07/15 05:01:34;;;;;;;;;;;16.60;99.90;;;;;;4591603;19;19946;-36
2022/07/15 05:03:05;;;;;;;;;;;16.60;99.90;;;;;;4591600;19;20268;-35
2022/07/15 05:04:36;;;;;;;;;;;16.60;99.90;;;;;;4591521;19;19922;-38
2022/07/15 05:06:07;;;;;;;;;;;16.60;99.90;;;;;;4590930;19;19931;-36
2022/07/15 05:07:38;;;;;;;;;;;16.60;99.90;;;;;;4590722;19;19918;-37
2022/07/15 05:09:09;;;;;;;;;;;16.60;99.90;;;;;;4593367;19;20261;-37
2022/07/15 05:10:40;;;;;;;;;;;16.60;99.90;;;;;;4593161;19;20364;-35
2022/07/15 05:12:11;;;;;;;;;;;16.60;99.90;;;;;;4589361;19;19914;-36
2022/07/15 05:13:42;;;;;;;;;;;16.60;99.90;;;;;;4589693;19;20355;-35
2022/07/15 05:15:14;;;;;;;;;;;16.60;99.90;;;;;;4592059;19;19921;-31
2022/07/15 05:16:46;;;;;;;;;;;16.60;99.90;;;;;;4592563;19;20014;-34
2022/07/15 05:18:17;;;;;;;;;;;16.60;99.90;;;;;;4590250;19;20395;-35
2022/07/15 05:19:48;;;;;;;;;;;16.60;99.90;;;;;;4590678;19;19923;-33
2022/07/15 05:21:19;;;;;;;;;;;16.70;99.90;;;;;;4593732;19;19914;-34
2022/07/15 05:22:50;;;;;;;;;;;16.70;99.90;;;;;;4592656;19;20367;-38
2022/07/15 05:24:21;;;;;;;;;;;16.70;99.90;;;;;;4591449;19;20018;-34
2022/07/15 05:25:52;;;;;;;;;;;16.70;99.90;;;;;;4591485;19;19922;-36
2022/07/15 05:27:23;;;;;;;;;;;16.70;99.90;;;;;;4591776;19;19911;-37
2022/07/15 05:28:54;;;;;;;;;;;16.70;99.90;;;;;;4591032;19;20005;-38
2022/07/15 05:30:25;;;;;;;;;;;16.70;99.90;;;;;;4590834;19;19923;-39
2022/07/15 05:31:56;;;;;;;;;;;16.80;99.90;;;;;;4590472;19;19918;-37
2022/07/15 05:33:27;;;;;;;;;;;16.70;99.90;;;;;;4590188;19;19918;-38
2022/07/15 05:34:58;;;;;;;;;;;16.80;99.90;;;;;;4591544;19;19937;-41
2022/07/15 05:36:29;;;;;;;;;;;16.70;99.90;;;;;;4591964;19;20624;-37
2022/07/15 05:38:01;;;;;;;;;;;16.80;99.90;;;;;;4592334;19;19922;-35
2022/07/15 05:39:32;;;;;;;;;;;16.80;99.90;;;;;;4592127;19;19914;-34
2022/07/15 05:41:03;;;;;;;;;;;16.80;99.90;;;;;;4591119;19;19907;-32
2022/07/15 05:42:34;;;;;;;;;;;16.80;99.90;;;;;;4590456;19;19994;-33
2022/07/15 05:44:06;;;;;;;;;;;16.80;99.90;;;;;;4589681;19;19918;-34
2022/07/15 05:45:37;;;;;;;;;;;16.80;99.90;;;;;;4590100;19;19915;-35
2022/07/15 05:47:08;;;;;;;;;;;16.80;99.90;;;;;;4590088;19;20230;-37
2022/07/15 05:48:40;;;;;;;;;;;16.80;99.90;;;;;;4592409;19;19919;-38
2022/07/15 05:50:12;;;;;;;;;;;16.80;99.90;;;;;;4591296;19;20261;-38
2022/07/15 05:51:42;;;;;;;;;;;16.80;99.90;;;;;;4591381;19;19929;-42
2022/07/15 05:53:14;;;;;;;;;;;16.80;99.90;;;;;;4589886;19;19926;-38
2022/07/15 05:54:44;;;;;;;;;;;16.90;99.90;;;;;;4590996;19;19947;-35
2022/07/15 05:56:16;;;;;;;;;;;16.80;99.90;;;;;;4591157;19;19923;-32
2022/07/15 05:57:47;;;;;;;;;;;16.90;99.90;;;;;;4590181;19;19919;-36
2022/07/15 05:59:18;;;;;;;;;;;16.90;99.90;;;;;;4589740;19;20337;-35
2022/07/15 06:00:50;;;;;;;;;;;16.90;99.90;;;;;;4590167;19;19914;-37
2022/07/15 06:02:21;;;;;;;;;;;16.90;99.90;;;;;;4592416;19;19923;-40
2022/07/15 06:03:52;;;;;;;;;;;16.90;99.90;;;;;;4591936;19;20636;-37
2022/07/15 06:05:23;;;;;;;;;;;16.90;99.90;;;;;;4591516;19;19918;-37
2022/07/15 06:06:54;;;;;;;;;;;16.90;99.90;;;;;;4591439;19;19944;-31
2022/07/15 06:08:25;;;;;;;;;;;16.90;99.90;;;;;;4590950;19;19926;-34
2022/07/15 06:09:56;;;;;;;;;;;17.00;99.90;;;;;;4590441;19;19915;-36
2022/07/15 06:11:27;;;;;;;;;;;17.00;99.90;;;;;;4588539;19;20001;-34
2022/07/15 06:12:58;;;;;;;;;;;17.00;99.90;;;;;;4589769;19;20350;-36
2022/07/15 06:14:33;;;;;;;;;;;17.00;99.90;;;;;;4588256;19;20333;-35
2022/07/15 06:16:05;;;;;;;;;;;17.00;99.90;;;;;;4589463;19;20376;-36
2022/07/15 06:17:36;;;;;;;;;;;17.00;99.90;;;;;;4592519;19;20387;-35
2022/07/15 06:19:08;;;;;;;;;;;17.00;99.90;;;;;;4591568;19;19923;-35
2022/07/15 06:20:40;;;;;;;;;;;17.00;99.90;;;;;;4591237;19;20337;-35
2022/07/15 06:22:11;;;;;;;;;;;17.10;99.90;;;;;;4590945;19;19931;-39
2022/07/15 06:23:42;;;;;;;;;;;17.00;99.90;;;;;;4590760;19;19919;-38
2022/07/15 06:25:13;;;;;;;;;;;17.00;99.90;;;;;;4589700;19;19944;-37
2022/07/15 06:26:44;;;;;;;;;;;17.00;99.90;;;;;;4588748;19;20337;-37
2022/07/15 06:28:15;;;;;;;;;;;17.00;99.90;;;;;;4588788;19;19986;-34
2022/07/15 06:29:46;;;;;;;;;;;17.00;99.90;;;;;;4589886;19;19913;-33
2022/07/15 06:31:17;;;;;;;;;;;17.00;99.90;;;;;;4591795;19;19932;-33
2022/07/15 06:32:48;;;;;;;;;;;17.00;99.90;;;;;;4591541;19;19923;-35
2022/07/15 06:34:19;;;;;;;;;;;17.00;99.90;;;;;;4590594;19;19930;-33
2022/07/15 06:35:50;;;;;;;;;;;17.10;99.90;;;;;;4590043;19;19918;-38
2022/07/15 06:37:21;;;;;;;;;;;17.10;99.90;;;;;;4589131;19;19919;-37
2022/07/15 06:38:52;;;;;;;;;;;17.10;99.90;;;;;;4589574;19;19915;-37
2022/07/15 06:40:23;;;;;;;;;;;17.10;99.90;;;;;;4589172;19;19950;-34
2022/07/15 06:41:54;;;;;;;;;;;17.00;99.90;;;;;;4588136;19;19978;-41
2022/07/15 06:43:25;;;;;;;;;;;17.10;99.90;;;;;;4590132;19;19943;-37
2022/07/15 06:44:56;;;;;;;;;;;17.10;99.90;;;;;;4590363;19;20271;-34
2022/07/15 06:46:27;;;;;;;;;;;17.10;99.90;;;;;;4590377;19;19918;-36
2022/07/15 06:47:59;;;;;;;;;;;17.10;99.90;;;;;;4588982;19;19919;-39
2022/07/15 06:49:30;;;;;;;;;;;17.10;99.90;;;;;;4591449;19;19919;-39
2022/07/15 06:51:02;;;;;;;;;;;17.10;99.90;;;;;;4590484;19;20280;-33
2022/07/15 06:52:33;;;;;;;;;;;17.10;99.90;;;;;;4591602;19;19925;-33
2022/07/15 06:54:04;;;;;;;;;;;17.10;99.90;;;;;;4590446;19;19922;-35
2022/07/15 06:55:35;;;;;;;;;;;17.10;99.90;;;;;;4592646;19;19922;-34
2022/07/15 06:57:06;;;;;;;;;;;17.10;99.90;;;;;;4594089;19;19917;-34
2022/07/15 06:58:37;;;;;;;;;;;17.20;99.90;;;;;;4595186;19;19919;-35
2022/07/15 07:00:11;;;;;;;;;;;17.20;99.90;;;;;;4593172;19;19934;-39
2022/07/15 07:01:42;;;;;;;;;;;17.20;99.90;;;;;;4595729;19;19929;-38
2022/07/15 07:03:13;;;;;;;;;;;17.30;99.90;;;;;;4595411;19;19923;-40
2022/07/15 07:04:44;;;;;;;;;;;17.30;99.90;;;;;;4593735;19;19914;-38
2022/07/15 07:06:15;;;;;;;;;;;17.30;99.90;;;;;;4594857;19;19922;-36
2022/07/15 07:07:46;;;;;;;;;;;17.20;99.90;;;;;;4593976;19;19978;-40
2022/07/15 07:09:18;;;;;;;;;;;17.30;99.90;;;;;;4594986;19;19914;-36
2022/07/15 07:10:49;;;;;;;;;;;17.30;99.90;;;;;;4592609;19;19940;-38
2022/07/15 07:12:20;;;;;;;;;;;17.30;99.90;;;;;;4594838;19;19914;-37
2022/07/15 07:13:51;;;;;;;;;;;17.30;99.90;;;;;;4594529;19;20293;-36
2022/07/15 07:15:23;;;;;;;;;;;17.30;99.90;;;;;;4595068;19;19986;-32
2022/07/15 07:16:55;;;;;;;;;;;17.30;99.90;;;;;;4593810;19;19946;-36
2022/07/15 07:18:27;;;;;;;;;;;17.30;99.90;;;;;;4593433;19;20030;-40
2022/07/15 07:19:58;;;;;;;;;;;17.30;99.90;;;;;;4595439;19;19915;-35
2022/07/15 07:21:29;;;;;;;;;;;17.30;99.90;;;;;;4594374;19;19918;-35
2022/07/15 07:23:00;;;;;;;;;;;17.30;99.90;;;;;;4594094;19;20291;-36
2022/07/15 07:24:31;;;;;;;;;;;17.30;99.90;;;;;;4593457;19;19918;-34
2022/07/15 07:26:03;;;;;;;;;;;17.30;99.90;;;;;;4596395;19;19906;-38
2022/07/15 07:27:34;;;;;;;;;;;17.30;99.90;;;;;;4594195;19;19923;-35
2022/07/15 07:29:05;;;;;;;;;;;17.30;99.90;;;;;;4592935;19;19914;-37
2022/07/15 07:30:36;;;;;;;;;;;17.30;99.90;;;;;;4593876;19;19915;-34
2022/07/15 07:32:07;;;;;;;;;;;17.30;99.90;;;;;;4594715;19;19914;-31
2022/07/15 07:33:39;;;;;;;;;;;17.30;99.90;;;;;;4592506;19;19986;-31
2022/07/15 07:35:12;;;;;;;;;;;17.40;99.90;;;;;;4593693;19;19927;-30
2022/07/15 07:36:45;;;;;;;;;;;17.40;99.90;;;;;;4594435;19;19918;-34
2022/07/15 07:38:15;;;;;;;;;;;17.40;99.90;;;;;;4594249;19;20252;-31
2022/07/15 07:39:47;;;;;;;;;;;17.50;99.90;;;;;;4593143;19;19946;-35
2022/07/15 07:41:18;;;;;;;;;;;17.50;99.90;;;;;;4594508;19;19974;-37
2022/07/15 07:42:49;;;;;;;;;;;17.60;99.90;;;;;;4594921;19;19926;-40
2022/07/15 07:44:20;;;;;;;;;;;17.60;99.90;;;;;;4594117;19;20325;-33
2022/07/15 07:45:51;;;;;;;;;;;17.60;99.90;;;;;;4594608;19;19922;-32
2022/07/15 07:47:22;;;;;;;;;;;17.60;99.90;;;;;;4594834;19;19919;-34
2022/07/15 07:48:53;;;;;;;;;;;17.60;99.90;;;;;;4594742;19;19906;-39
2022/07/15 07:50:25;;;;;;;;;;;17.60;99.90;;;;;;4594017;19;19919;-35
2022/07/15 07:51:57;;;;;;;;;;;17.60;99.90;;;;;;4594246;19;19930;-37
2022/07/15 07:53:28;;;;;;;;;;;17.60;99.90;;;;;;4594286;19;19918;-35
2022/07/15 07:54:58;;;;;;;;;;;17.50;99.90;;;;;;4594107;19;19918;-32
2022/07/15 07:56:29;;;;;;;;;;;17.50;99.90;;;;;;4594100;19;19915;-36
2022/07/15 07:58:01;;;;;;;;;;;17.50;99.90;;;;;;4593491;19;19922;-33
2022/07/15 07:59:32;;;;;;;;;;;17.50;99.90;;;;;;4593807;19;19913;-38
2022/07/15 08:01:03;;;;;;;;;;;17.50;99.90;;;;;;4593596;19;19919;-40
2022/07/15 08:02:33;;;;;;;;;;;17.60;99.90;;;;;;4594065;19;20321;-34
2022/07/15 08:04:05;;;;;;;;;;;17.60;99.90;;;;;;4593897;19;20255;-34
2022/07/15 08:05:36;;;;;;;;;;;17.60;99.90;;;;;;4593969;19;19919;-38
2022/07/15 08:07:07;;;;;;;;;;;17.60;99.90;;;;;;4593739;19;19915;-37
2022/07/15 08:08:38;;;;;;;;;;;17.60;99.90;;;;;;4591485;19;19919;-36
2022/07/15 08:10:10;;;;;;;;;;;17.60;99.90;;;;;;4593952;19;19926;-38
2022/07/15 08:11:41;;;;;;;;;;;17.60;99.90;;;;;;4591377;19;19923;-37
2022/07/15 08:13:15;;;;;;;;;;;17.60;99.90;;;;;;4592813;19;19943;-36
2022/07/15 08:14:46;;;;;;;;;;;17.60;99.90;;;;;;4593334;19;19934;-41
2022/07/15 08:16:17;;;;;;;;;;;17.60;99.90;;;;;;4594375;19;19929;-35
2022/07/15 08:17:48;;;;;;;;;;;17.60;99.90;;;;;;4592246;19;19931;-35
2022/07/15 08:19:20;;;;;;;;;;;17.60;99.90;;;;;;4594166;19;19914;-34
2022/07/15 08:20:51;;;;;;;;;;;17.60;99.90;;;;;;4592484;19;19922;-35
2022/07/15 08:22:22;;;;;;;;;;;17.60;99.90;;;;;;4593475;19;20265;-41
2022/07/15 08:23:54;;;;;;;;;;;17.60;99.90;;;;;;4591989;19;19919;-35
2022/07/15 08:25:26;;;;;;;;;;;17.60;99.90;;;;;;4592995;19;19919;-35
2022/07/15 08:26:57;;;;;;;;;;;17.60;99.90;;;;;;4593518;19;19934;-39
2022/07/15 08:28:28;;;;;;;;;;;17.60;99.90;;;;;;4592602;19;19918;-36
2022/07/15 08:29:59;;;;;;;;;;;17.70;99.90;;;;;;4592574;19;19918;-36
2022/07/15 08:31:31;;;;;;;;;;;17.60;99.90;;;;;;4592873;19;19932;-36
2022/07/15 08:33:02;;;;;;;;;;;17.70;99.90;;;;;;4593657;19;20027;-36
2022/07/15 08:34:33;;;;;;;;;;;17.70;99.90;;;;;;4590928;19;20249;-35
2022/07/15 08:36:05;;;;;;;;;;;17.80;99.90;;;;;;4591714;19;19921;-38
2022/07/15 08:37:37;;;;;;;;;;;17.80;99.90;;;;;;4592719;19;19915;-34
2022/07/15 08:39:08;;;;;;;;;;;17.90;99.90;;;;;;4593468;19;19947;-35
2022/07/15 08:40:39;;;;;;;;;;;17.90;99.90;;;;;;4592778;19;20329;-39
2022/07/15 08:42:10;;;;;;;;;;;17.80;99.90;;;;;;4592687;19;19922;-40
2022/07/15 08:43:41;;;;;;;;;;;17.80;99.90;;;;;;4593392;19;19938;-35
2022/07/15 08:45:13;;;;;;;;;;;17.80;99.90;;;;;;4592326;19;19975;-35
2022/07/15 08:46:45;;;;;;;;;;;17.80;99.90;;;;;;4592453;19;19922;-36
2022/07/15 08:48:16;;;;;;;;;;;17.90;99.90;;;;;;4593017;19;19925;-36
2022/07/15 08:49:47;;;;;;;;;;;18.00;99.90;;;;;;4592329;19;19911;-34
2022/07/15 08:51:19;;;;;;;;;;;18.00;99.90;;;;;;4592670;19;19911;-32
2022/07/15 08:52:51;;;;;;;;;;;18.00;99.90;;;;;;4591589;19;19911;-38